createdAt,value
2023-03-16T00:03:41.839Z,94.83
2023-03-16T00:10:27.553Z,95.28
2023-03-16T00:17:19.852Z,95.49
2023-03-16T00:24:03.889Z,95.49
2023-03-16T00:30:48.251Z,95.98
2023-03-16T00:37:33.007Z,96.05
2023-03-16T00:44:15.416Z,95.76
2023-03-16T00:50:57.643Z,95.94
2023-03-16T00:57:39.880Z,96.32
2023-03-16T01:04:23.254Z,97.21
2023-03-16T01:11:18.716Z,97.69
2023-03-16T01:18:01.860Z,98.33
2023-03-16T01:24:45.395Z,99.47
2023-03-16T01:31:29.315Z,100.00
2023-03-16T01:38:12.148Z,100.00
2023-03-16T01:45:02.162Z,100.00
2023-03-16T01:51:56.360Z,100.00
2023-03-16T01:58:42.997Z,100.00
2023-03-16T02:05:54.600Z,100.00
2023-03-16T02:12:39.501Z,100.00
2023-03-16T02:20:16.327Z,100.00
2023-03-16T02:27:08.290Z,100.00
2023-03-16T02:33:54.197Z,100.00
2023-03-16T02:40:38.784Z,100.00
2023-03-16T02:47:41.649Z,100.00
2023-03-16T02:54:24.645Z,100.00
2023-03-16T03:01:07.808Z,100.00
2023-03-16T03:07:51.475Z,100.00
2023-03-16T03:14:38.090Z,100.00
2023-03-16T03:21:21.613Z,100.00
2023-03-16T03:28:08.533Z,100.00
2023-03-16T03:34:51.338Z,100.00
2023-03-16T03:41:34.388Z,100.00
2023-03-16T03:48:18.557Z,100.00
2023-03-16T03:55:00.910Z,100.00
2023-03-16T04:01:43.503Z,100.00
2023-03-16T04:08:26.154Z,100.00
2023-03-16T04:15:10.003Z,100.00
2023-03-16T04:22:02.125Z,100.00
2023-03-16T04:28:44.761Z,100.00
2023-03-16T04:35:32.061Z,100.00
2023-03-16T04:42:14.642Z,100.00
2023-03-16T04:48:58.453Z,100.00
2023-03-16T04:55:44.433Z,100.00
2023-03-16T05:02:27.242Z,100.00
2023-03-16T05:09:12.131Z,100.00
2023-03-16T05:15:55.561Z,100.00
2023-03-16T05:22:46.210Z,100.00
2023-03-16T05:29:36.507Z,100.00
2023-03-16T05:36:19.635Z,100.00
2023-03-16T05:43:05.496Z,100.00
2023-03-16T05:49:52.379Z,100.00
2023-03-16T05:56:40.654Z,100.00
2023-03-16T06:03:23.053Z,100.00
2023-03-16T06:10:08.007Z,100.00
2023-03-16T06:16:50.839Z,100.00
2023-03-16T06:23:34.145Z,100.00
2023-03-16T06:30:17.836Z,100.00
2023-03-16T06:37:00.348Z,100.00
2023-03-16T06:43:43.198Z,100.00
2023-03-16T06:50:27.776Z,100.00
2023-03-16T06:57:10.729Z,100.00
2023-03-16T07:03:53.100Z,100.00
2023-03-16T07:10:40.210Z,99.69
2023-03-16T07:17:22.458Z,98.61
2023-03-16T07:24:06.089Z,96.63
2023-03-16T07:31:02.836Z,95.75
2023-03-16T07:37:48.038Z,94.78
2023-03-16T07:44:31.394Z,93.76
2023-03-16T07:51:14.909Z,92.81
2023-03-16T07:58:01.843Z,91.58
2023-03-16T08:04:48.672Z,90.96
2023-03-16T08:11:31.281Z,89.85
2023-03-16T08:18:17.731Z,89.37
2023-03-16T08:25:00.874Z,89.55
2023-03-16T08:31:43.299Z,88.99
2023-03-16T08:38:36.000Z,88.84
2023-03-16T08:45:23.521Z,87.97
2023-03-16T08:52:06.459Z,87.47
2023-03-16T08:58:50.488Z,87.03
2023-03-16T09:05:34.164Z,86.69
2023-03-16T09:12:16.411Z,86.79
2023-03-16T09:18:59.251Z,86.17
2023-03-16T09:25:41.769Z,85.07
2023-03-16T09:32:23.970Z,84.49
2023-03-16T09:39:06.256Z,83.65
2023-03-16T09:46:17.833Z,81.61
2023-03-16T09:53:34.301Z,79.85
2023-03-16T10:00:45.317Z,78.53
2023-03-16T10:07:52.281Z,78.72
2023-03-16T10:15:04.718Z,77.59
2023-03-16T10:21:49.137Z,77.59
2023-03-16T10:28:34.831Z,77.69
2023-03-16T10:35:31.847Z,76.81
2023-03-16T10:42:21.392Z,76.50
2023-03-16T10:49:03.640Z,76.36
2023-03-16T10:55:48.140Z,75.81
2023-03-16T11:02:35.416Z,76.14
2023-03-16T11:09:33.710Z,76.72
2023-03-16T11:16:33.230Z,76.05
2023-03-16T11:23:18.405Z,75.09
2023-03-16T11:30:25.439Z,74.42
2023-03-16T11:37:40.168Z,71.94
2023-03-16T11:45:12.651Z,71.91
2023-03-16T11:52:09.727Z,71.06
2023-03-16T12:00:01.412Z,71.31
2023-03-16T12:07:06.090Z,71.37
2023-03-16T12:14:09.165Z,70.97
2023-03-16T12:21:01.810Z,70.03
2023-03-16T12:27:45.541Z,69.00
2023-03-16T12:34:45.780Z,69.38
2023-03-16T12:42:06.461Z,69.57
2023-03-16T12:48:55.944Z,67.97
2023-03-16T12:55:38.353Z,63.54
2023-03-16T13:02:31.572Z,61.66
2023-03-16T13:09:27.408Z,60.93
2023-03-16T13:16:23.706Z,59.89
2023-03-16T13:23:18.451Z,60.10
2023-03-16T13:30:18.176Z,63.46
2023-03-16T13:37:01.710Z,71.96
2023-03-16T13:43:44.302Z,75.62
2023-03-16T13:50:26.996Z,80.62
2023-03-16T13:57:12.786Z,85.69
2023-03-16T14:04:08.802Z,90.36
2023-03-16T14:10:54.469Z,94.21
2023-03-16T14:17:36.680Z,96.94
2023-03-16T14:24:33.814Z,98.79
2023-03-16T14:31:20.907Z,95.87
2023-03-16T14:38:43.792Z,95.68
2023-03-16T14:45:34.076Z,91.73
2023-03-16T14:52:21.675Z,91.20
2023-03-16T14:59:03.996Z,84.28
2023-03-16T15:05:49.615Z,82.96
2023-03-16T15:12:32.084Z,81.95
2023-03-16T15:19:14.796Z,81.72
2023-03-16T15:26:02.811Z,80.61
2023-03-16T15:32:45.290Z,79.16
2023-03-16T15:39:28.337Z,76.85
2023-03-16T15:46:11.138Z,76.35
2023-03-16T15:52:59.986Z,75.20
2023-03-16T15:59:42.256Z,75.59
2023-03-16T16:06:24.791Z,76.04
2023-03-16T16:13:14.053Z,76.24
2023-03-16T16:19:56.880Z,76.26
2023-03-16T16:26:51.925Z,77.83
2023-03-16T16:33:37.245Z,78.96
2023-03-16T16:40:26.004Z,79.67
2023-03-16T16:47:23.768Z,80.80
2023-03-16T16:54:25.577Z,81.28
2023-03-16T17:01:23.660Z,81.18
2023-03-16T17:08:06.493Z,81.23
2023-03-16T17:14:49.907Z,82.04
2023-03-16T17:21:32.283Z,82.31
2023-03-16T17:28:16.817Z,82.71
2023-03-16T17:34:59.158Z,82.84
2023-03-16T17:41:42.020Z,82.92
2023-03-16T17:48:24.652Z,83.42
2023-03-16T17:55:08.019Z,84.14
2023-03-16T18:01:51.214Z,84.77
2023-03-16T18:08:35.957Z,85.11
2023-03-16T18:15:20.352Z,85.50
2023-03-16T18:22:02.540Z,85.45
2023-03-16T18:28:45.725Z,86.62
2023-03-16T18:35:28.395Z,87.85
2023-03-16T18:42:26.330Z,88.80
2023-03-16T18:49:36.035Z,88.70
2023-03-16T18:56:27.169Z,88.91
2023-03-16T19:03:31.786Z,89.88
2023-03-16T19:10:30.153Z,90.68
2023-03-16T19:17:12.380Z,91.11
2023-03-16T19:24:00.940Z,91.35
2023-03-16T19:30:43.761Z,92.03
2023-03-16T19:37:26.758Z,91.63
2023-03-16T19:44:22.420Z,91.62
2023-03-16T19:51:06.191Z,92.15
2023-03-16T19:57:54.125Z,91.21
2023-03-16T20:04:38.277Z,90.23
2023-03-16T20:11:30.199Z,89.83
2023-03-16T20:18:18.355Z,92.20
2023-03-16T20:25:05.207Z,93.52
2023-03-16T20:31:47.605Z,93.45
2023-03-16T20:38:30.016Z,93.81
2023-03-16T20:45:28.538Z,92.89
2023-03-16T20:52:17.781Z,93.80
2023-03-16T20:59:00.120Z,93.59
2023-03-16T21:05:42.801Z,94.38
2023-03-16T21:12:32.200Z,94.40
2023-03-16T21:19:21.210Z,94.57
2023-03-16T21:26:03.945Z,95.89
2023-03-16T21:32:46.497Z,95.40
2023-03-16T21:39:29.404Z,95.87
2023-03-16T21:46:21.411Z,96.04
2023-03-16T21:53:04.449Z,96.19
2023-03-16T21:59:47.156Z,95.47
2023-03-16T22:06:29.899Z,96.59
2023-03-16T22:13:12.129Z,96.02
2023-03-16T22:19:54.337Z,95.57
2023-03-16T22:26:37.484Z,94.59
2023-03-16T22:33:28.271Z,94.90
2023-03-16T22:40:18.561Z,95.50
2023-03-16T22:47:00.982Z,97.25
2023-03-16T22:53:45.920Z,98.23
2023-03-16T23:00:28.860Z,98.54
2023-03-16T23:07:15.040Z,98.79
2023-03-16T23:13:58.091Z,97.81
2023-03-16T23:20:40.541Z,97.70
2023-03-16T23:27:24.008Z,97.48
2023-03-16T23:34:16.406Z,98.43
2023-03-16T23:40:58.824Z,98.56
2023-03-16T23:47:41.249Z,98.38
2023-03-16T23:54:31.446Z,99.25
